createdAt,value
2023-02-04T00:00:56.155Z,21.75
2023-02-04T00:05:50.556Z,26.15
2023-02-04T00:10:43.797Z,23.33
2023-02-04T00:15:37.653Z,24.55
2023-02-04T00:20:31.863Z,26.88
2023-02-04T00:25:25.281Z,27.70
2023-02-04T00:30:18.615Z,28.15
2023-02-04T00:35:12.353Z,27.05
2023-02-04T00:40:05.848Z,27.92
2023-02-04T00:44:59.781Z,28.27
2023-02-04T00:49:52.452Z,28.05
2023-02-04T00:54:45.746Z,26.30
2023-02-04T00:59:39.369Z,28.33
2023-02-04T01:04:31.703Z,29.17
2023-02-04T01:09:25.023Z,29.55
2023-02-04T01:14:19.141Z,28.60
2023-02-04T01:19:13.075Z,28.88
2023-02-04T01:24:06.267Z,30.05
2023-02-04T01:29:20.556Z,31.38
2023-02-04T01:34:14.385Z,32.22
2023-02-04T01:39:07.941Z,31.83
2023-02-04T01:44:01.292Z,30.90
2023-02-04T01:48:54.713Z,29.80
2023-02-04T01:53:48.104Z,30.42
2023-02-04T01:58:41.193Z,29.83
2023-02-04T02:03:33.974Z,30.33
2023-02-04T02:08:26.448Z,29.65
2023-02-04T02:13:19.946Z,30.23
2023-02-04T02:18:13.434Z,32.13
2023-02-04T02:23:37.877Z,30.83
2023-02-04T02:28:31.681Z,27.02
2023-02-04T02:33:26.728Z,29.98
2023-02-04T02:38:20.308Z,30.23
2023-02-04T02:43:18.609Z,28.23
2023-02-04T02:48:12.113Z,28.35
2023-02-04T02:53:04.603Z,27.90
2023-02-04T02:57:58.167Z,26.48
2023-02-04T03:03:15.526Z,28.75
2023-02-04T03:08:09.067Z,26.45
2023-02-04T03:13:02.189Z,26.23
2023-02-04T03:17:57.578Z,27.27
2023-02-04T03:22:51.957Z,26.80
2023-02-04T03:27:45.883Z,28.00
2023-02-04T03:32:38.867Z,26.63
2023-02-04T03:37:32.468Z,25.98
2023-02-04T03:42:26.356Z,25.67
2023-02-04T03:47:20.036Z,26.58
2023-02-04T03:52:13.165Z,28.00
2023-02-04T03:57:07.019Z,27.30
2023-02-04T04:02:00.544Z,29.17
2023-02-04T04:06:53.970Z,29.70
2023-02-04T04:11:47.226Z,30.23
2023-02-04T04:16:42.068Z,26.23
2023-02-04T04:21:35.091Z,28.23
2023-02-04T04:26:28.520Z,27.00
2023-02-04T04:31:23.229Z,29.55
2023-02-04T04:36:16.693Z,25.63
2023-02-04T04:41:09.876Z,26.55
2023-02-04T04:46:03.652Z,27.10
2023-02-04T04:50:57.482Z,26.38
2023-02-04T04:55:50.135Z,27.50
2023-02-04T05:00:42.981Z,27.95
2023-02-04T05:05:40.382Z,26.77
2023-02-04T05:10:33.999Z,26.40
2023-02-04T05:15:28.613Z,24.60
2023-02-04T05:20:27.342Z,25.02
2023-02-04T05:25:21.300Z,25.88
2023-02-04T05:30:16.742Z,28.02
2023-02-04T05:35:10.580Z,28.98
2023-02-04T05:40:06.190Z,27.85
2023-02-04T05:44:59.579Z,26.02
2023-02-04T05:49:53.495Z,24.48
2023-02-04T05:54:46.433Z,23.85
2023-02-04T05:59:38.687Z,22.83
2023-02-04T06:04:31.353Z,21.23
2023-02-04T06:09:25.624Z,22.13
2023-02-04T06:14:19.473Z,25.77
2023-02-04T06:19:14.825Z,23.05
2023-02-04T06:24:11.841Z,24.30
2023-02-04T06:29:05.348Z,22.20
2023-02-04T06:33:58.871Z,24.33
2023-02-04T06:38:52.743Z,25.92
2023-02-04T06:43:47.087Z,24.42
2023-02-04T06:48:41.093Z,24.85
2023-02-04T06:53:34.851Z,23.95
2023-02-04T06:58:28.135Z,24.33
2023-02-04T07:03:20.846Z,25.48
2023-02-04T07:08:13.534Z,24.13
2023-02-04T07:13:06.516Z,23.40
2023-02-04T07:18:00.595Z,22.80
2023-02-04T07:22:54.647Z,26.63
2023-02-04T07:27:48.434Z,23.90
2023-02-04T07:32:42.293Z,24.50
2023-02-04T07:37:36.152Z,22.50
2023-02-04T07:42:30.082Z,23.60
2023-02-04T07:47:32.523Z,21.60
2023-02-04T07:52:26.769Z,19.00
2023-02-04T07:57:21.415Z,20.48
2023-02-04T08:02:14.926Z,20.27
2023-02-04T08:07:08.202Z,22.38
2023-02-04T08:12:02.160Z,22.05
2023-02-04T08:16:55.464Z,22.60
2023-02-04T08:21:48.948Z,19.15
2023-02-04T08:26:43.384Z,18.23
2023-02-04T08:31:37.733Z,17.42
2023-02-04T08:36:31.081Z,17.33
2023-02-04T08:41:24.725Z,23.38
2023-02-04T08:46:18.926Z,17.25
2023-02-04T08:51:13.024Z,17.60
2023-02-04T08:56:09.934Z,16.98
2023-02-04T09:01:03.918Z,13.05
2023-02-04T09:05:56.944Z,13.13
2023-02-04T09:10:49.741Z,12.45
2023-02-04T09:15:43.400Z,14.88
2023-02-04T09:20:37.989Z,16.75
2023-02-04T09:25:31.276Z,16.00
2023-02-04T09:30:23.897Z,13.63
2023-02-04T09:35:16.911Z,13.60
2023-02-04T09:40:17.221Z,13.90
2023-02-04T09:45:19.384Z,13.00
2023-02-04T09:50:20.361Z,13.15
2023-02-04T09:55:18.402Z,11.15
2023-02-04T10:00:20.747Z,12.52
2023-02-04T10:05:19.673Z,12.52
2023-02-04T10:10:28.348Z,18.23
2023-02-04T10:15:21.566Z,15.02
2023-02-04T10:20:21.063Z,14.30
2023-02-04T10:25:21.619Z,14.98
2023-02-04T10:30:39.974Z,15.00
2023-02-04T10:35:33.565Z,15.25
2023-02-04T10:40:36.468Z,13.07
2023-02-04T10:45:31.457Z,13.75
2023-02-04T10:50:27.144Z,15.23
2023-02-04T10:55:24.970Z,15.70
2023-02-04T11:00:26.481Z,16.23
2023-02-04T11:05:21.703Z,14.95
2023-02-04T11:10:17.386Z,15.65
2023-02-04T11:15:42.183Z,15.60
2023-02-04T11:20:40.248Z,16.77
2023-02-04T11:25:36.964Z,16.75
2023-02-04T11:30:36.297Z,15.70
2023-02-04T11:35:30.835Z,17.00
2023-02-04T11:40:28.639Z,17.92
2023-02-04T11:45:24.969Z,16.65
2023-02-04T11:50:31.004Z,17.10
2023-02-04T11:55:25.509Z,17.83
2023-02-04T12:00:21.573Z,17.60
2023-02-04T12:05:35.925Z,17.17
2023-02-04T12:10:35.883Z,15.38
2023-02-04T12:15:36.710Z,14.05
2023-02-04T12:20:29.554Z,13.20
2023-02-04T12:25:23.471Z,13.52
2023-02-04T12:30:18.933Z,12.63
2023-02-04T12:35:12.182Z,11.82
2023-02-04T12:40:06.079Z,12.18
2023-02-04T12:44:58.872Z,11.35
2023-02-04T12:49:53.760Z,10.52
2023-02-04T12:54:47.400Z,11.02
2023-02-04T12:59:41.514Z,11.13
2023-02-04T13:04:37.196Z,12.63
2023-02-04T13:09:31.025Z,11.95
2023-02-04T13:14:24.634Z,10.73
2023-02-04T13:19:18.103Z,11.60
2023-02-04T13:24:11.265Z,10.80
2023-02-04T13:29:04.012Z,10.13
2023-02-04T13:33:58.416Z,11.02
2023-02-04T13:38:51.796Z,10.38
2023-02-04T13:43:45.809Z,9.15
2023-02-04T13:48:38.543Z,10.23
2023-02-04T13:53:32.329Z,10.88
2023-02-04T13:58:26.304Z,10.02
2023-02-04T14:03:19.750Z,11.40
2023-02-04T14:08:12.717Z,10.50
2023-02-04T14:13:05.891Z,9.75
2023-02-04T14:17:58.584Z,10.52
2023-02-04T14:22:52.536Z,9.27
2023-02-04T14:27:46.553Z,11.02
2023-02-04T14:32:40.975Z,10.80
2023-02-04T14:37:35.282Z,12.10
2023-02-04T14:42:29.121Z,10.82
2023-02-04T14:47:22.483Z,10.57
2023-02-04T14:52:16.631Z,11.13
2023-02-04T14:57:12.241Z,10.60
2023-02-04T15:02:05.951Z,11.40
2023-02-04T15:07:00.462Z,11.77
2023-02-04T15:11:53.508Z,11.98
2023-02-04T15:16:49.351Z,11.63
2023-02-04T15:21:43.924Z,10.73
2023-02-04T15:26:37.012Z,11.15
2023-02-04T15:31:31.473Z,10.88
2023-02-04T15:36:25.467Z,11.18
2023-02-04T15:41:19.141Z,11.85
2023-02-04T15:46:12.438Z,11.18
2023-02-04T15:51:07.281Z,13.18
2023-02-04T15:56:01.313Z,13.55
2023-02-04T16:00:54.483Z,13.25
2023-02-04T16:05:48.199Z,13.55
2023-02-04T16:10:41.191Z,13.75
2023-02-04T16:15:34.470Z,14.82
2023-02-04T16:20:28.264Z,14.82
2023-02-04T16:25:24.256Z,16.20
2023-02-04T16:30:18.548Z,50.20
2023-02-04T16:35:11.661Z,55.67
2023-02-04T16:40:07.083Z,58.88
2023-02-04T16:45:00.573Z,57.47
2023-02-04T16:49:55.696Z,63.22
2023-02-04T16:54:49.833Z,58.42
2023-02-04T16:59:42.459Z,59.30
2023-02-04T17:04:35.621Z,58.97
2023-02-04T17:09:29.936Z,64.28
2023-02-04T17:14:24.818Z,64.78
2023-02-04T17:19:18.222Z,64.72
2023-02-04T17:24:12.195Z,66.47
2023-02-04T17:29:35.950Z,63.45
2023-02-04T17:34:49.617Z,66.43
2023-02-04T17:39:42.632Z,68.18
2023-02-04T17:44:36.478Z,68.97
2023-02-04T17:49:34.479Z,70.85
2023-02-04T17:54:28.019Z,69.57
2023-02-04T17:59:21.910Z,64.15
2023-02-04T18:04:16.246Z,64.47
2023-02-04T18:09:16.446Z,62.78
2023-02-04T18:14:23.273Z,64.82
2023-02-04T18:19:17.332Z,68.40
2023-02-04T18:24:09.080Z,64.22
2023-02-04T18:29:02.343Z,69.03
2023-02-04T18:33:54.981Z,67.03
2023-02-04T18:38:47.712Z,64.07
2023-02-04T18:43:41.910Z,69.55
2023-02-04T18:49:07.078Z,70.65
2023-02-04T18:54:05.350Z,70.10
2023-02-04T18:58:59.297Z,66.53
2023-02-04T19:03:56.237Z,64.22
2023-02-04T19:08:49.481Z,65.88
2023-02-04T19:13:42.890Z,68.90
2023-02-04T19:18:39.685Z,69.93
2023-02-04T19:23:38.296Z,110.07
2023-02-04T19:28:52.779Z,75.40
2023-02-04T19:33:46.339Z,77.93
2023-02-04T19:38:46.292Z,65.40
2023-02-04T19:43:40.006Z,74.75
2023-02-04T19:48:39.703Z,80.07
2023-02-04T19:53:33.366Z,75.05
2023-02-04T19:58:30.511Z,70.00
2023-02-04T20:04:04.787Z,65.38
2023-02-04T20:09:04.882Z,73.05
2023-02-04T20:14:14.747Z,75.88
2023-02-04T20:19:34.060Z,78.95
2023-02-04T20:24:31.177Z,78.13
2023-02-04T20:29:25.256Z,82.43
2023-02-04T20:34:38.183Z,71.00
2023-02-04T20:39:39.780Z,62.30
2023-02-04T20:44:40.172Z,67.05
2023-02-04T20:49:40.939Z,73.93
2023-02-04T20:54:35.175Z,77.43
2023-02-04T20:59:31.493Z,77.55
2023-02-04T21:04:30.706Z,79.50
2023-02-04T21:09:29.758Z,76.60
2023-02-04T21:14:24.442Z,69.47
2023-02-04T21:19:17.669Z,58.88
2023-02-04T21:24:12.951Z,60.63
2023-02-04T21:29:06.552Z,62.45
2023-02-04T21:34:00.499Z,61.95
2023-02-04T21:39:13.870Z,58.80
2023-02-04T21:44:07.223Z,58.25
2023-02-04T21:48:59.495Z,62.03
2023-02-04T21:53:53.519Z,59.30
2023-02-04T21:58:46.964Z,67.75
2023-02-04T22:03:41.753Z,70.45
2023-02-04T22:08:34.469Z,68.05
2023-02-04T22:13:47.259Z,66.88
2023-02-04T22:18:41.125Z,70.05
2023-02-04T22:23:34.436Z,67.93
2023-02-04T22:28:27.505Z,71.88
2023-02-04T22:33:20.451Z,70.32
2023-02-04T22:38:14.068Z,75.57
2023-02-04T22:43:07.384Z,78.90
2023-02-04T22:47:59.988Z,79.90
2023-02-04T22:52:54.324Z,80.35
2023-02-04T22:57:47.254Z,77.20
2023-02-04T23:02:41.114Z,80.53
2023-02-04T23:07:33.801Z,79.53
2023-02-04T23:12:26.629Z,74.10
2023-02-04T23:17:19.854Z,77.28
2023-02-04T23:22:18.026Z,78.07
2023-02-04T23:27:11.899Z,70.30
2023-02-04T23:32:06.334Z,72.80
2023-02-04T23:37:00.766Z,74.05
2023-02-04T23:41:54.627Z,73.22
2023-02-04T23:46:48.426Z,72.55
2023-02-04T23:51:41.904Z,68.03
2023-02-04T23:56:35.776Z,71.88
